createdAt,value
2023-03-26T00:01:23.626Z,7.50
2023-03-26T00:03:54.721Z,6.13
2023-03-26T00:06:23.804Z,9.52
2023-03-26T00:08:51.511Z,3.80
2023-03-26T00:11:20.890Z,9.93
2023-03-26T00:13:48.154Z,7.57
2023-03-26T00:16:17.684Z,6.18
2023-03-26T00:18:44.650Z,5.05
2023-03-26T00:21:15.152Z,5.80
2023-03-26T00:23:43.068Z,3.40
2023-03-26T00:26:11.158Z,6.70
2023-03-26T00:28:40.364Z,4.95
2023-03-26T00:31:12.947Z,4.45
2023-03-26T00:33:41.340Z,5.32
2023-03-26T00:36:14.749Z,4.05
2023-03-26T00:38:42.923Z,5.28
2023-03-26T00:41:19.579Z,3.85
2023-03-26T00:43:46.676Z,4.57
2023-03-26T00:46:13.735Z,5.35
2023-03-26T00:48:45.530Z,5.63
2023-03-26T00:51:17.917Z,6.70
2023-03-26T00:53:46.959Z,4.05
2023-03-26T00:56:14.345Z,5.13
2023-03-26T00:58:41.768Z,6.40
2023-03-26T01:01:15.462Z,7.50
2023-03-26T01:03:53.635Z,5.47
2023-03-26T01:06:35.912Z,9.18
2023-03-26T01:09:34.943Z,4.80
2023-03-26T01:12:06.601Z,4.25
2023-03-26T01:14:33.397Z,10.25
2023-03-26T01:17:02.434Z,5.28
2023-03-26T01:19:45.258Z,4.88
2023-03-26T01:22:24.438Z,4.18
2023-03-26T01:24:56.487Z,7.25
2023-03-26T01:27:29.543Z,4.78
2023-03-26T01:30:15.113Z,4.22
2023-03-26T01:33:14.255Z,6.32
2023-03-26T01:36:04.110Z,5.40
2023-03-26T01:39:02.159Z,3.40
2023-03-26T01:41:35.618Z,3.85
2023-03-26T01:44:27.273Z,2.90
2023-03-26T01:46:55.088Z,2.50
2023-03-26T01:49:21.781Z,5.88
2023-03-26T01:51:48.502Z,3.85
2023-03-26T01:54:21.133Z,2.25
2023-03-26T01:56:54.726Z,3.17
2023-03-26T01:59:41.278Z,4.05
2023-03-26T02:02:38.688Z,4.00
2023-03-26T02:05:22.662Z,12.80
2023-03-26T02:07:58.575Z,3.38
2023-03-26T02:10:30.300Z,6.88
2023-03-26T02:12:58.967Z,4.63
2023-03-26T02:15:25.930Z,4.05
2023-03-26T02:17:53.332Z,6.90
2023-03-26T02:20:20.901Z,4.90
2023-03-26T02:22:47.888Z,4.15
2023-03-26T02:25:21.116Z,3.72
2023-03-26T02:27:52.840Z,7.78
2023-03-26T02:30:29.475Z,5.75
2023-03-26T02:32:59.238Z,3.72
2023-03-26T02:35:30.737Z,5.50
2023-03-26T02:37:59.987Z,5.95
2023-03-26T02:40:26.704Z,4.85
2023-03-26T02:42:53.576Z,3.63
2023-03-26T02:45:20.273Z,5.93
2023-03-26T02:48:08.029Z,10.63
2023-03-26T02:50:57.503Z,3.88
2023-03-26T02:53:39.418Z,6.10
2023-03-26T02:56:29.596Z,9.00
2023-03-26T02:59:13.818Z,6.85
2023-03-26T03:01:43.726Z,8.02
2023-03-26T03:04:13.590Z,8.68
2023-03-26T03:06:40.958Z,7.43
2023-03-26T03:09:11.018Z,4.53
2023-03-26T03:11:39.583Z,5.65
2023-03-26T03:14:07.775Z,6.88
2023-03-26T03:16:35.325Z,6.68
2023-03-26T03:19:06.168Z,5.93
2023-03-26T03:21:37.703Z,5.45
2023-03-26T03:24:05.117Z,5.80
2023-03-26T03:26:37.711Z,11.70
2023-03-26T03:29:29.041Z,7.78
2023-03-26T03:32:00.060Z,6.60
2023-03-26T03:34:49.827Z,9.82
2023-03-26T03:37:17.682Z,8.93
2023-03-26T03:39:50.254Z,5.63
2023-03-26T03:42:20.263Z,3.78
2023-03-26T03:44:49.034Z,7.20
2023-03-26T03:47:35.914Z,7.93
2023-03-26T03:50:03.406Z,7.45
2023-03-26T03:52:30.631Z,7.35
2023-03-26T03:54:57.776Z,5.32
2023-03-26T03:57:45.641Z,6.63
2023-03-26T04:00:18.146Z,6.60
2023-03-26T04:02:56.192Z,4.57
2023-03-26T04:05:26.520Z,6.47
2023-03-26T04:07:53.070Z,5.68
2023-03-26T04:10:28.502Z,4.25
2023-03-26T04:13:04.094Z,6.95
2023-03-26T04:15:57.228Z,7.32
2023-03-26T04:18:26.231Z,3.42
2023-03-26T04:20:55.505Z,4.60
2023-03-26T04:23:26.684Z,4.85
2023-03-26T04:26:10.386Z,4.50
2023-03-26T04:29:03.447Z,4.80
2023-03-26T04:31:32.009Z,7.10
2023-03-26T04:34:13.637Z,5.18
2023-03-26T04:36:55.175Z,5.10
2023-03-26T04:39:30.024Z,7.78
2023-03-26T04:45:15.305Z,4.53
2023-03-26T04:47:46.474Z,4.18
2023-03-26T04:50:13.485Z,9.32
2023-03-26T04:52:43.276Z,6.28
2023-03-26T04:55:58.050Z,5.18
2023-03-26T04:58:44.760Z,6.55
2023-03-26T05:01:11.953Z,5.75
2023-03-26T05:03:45.800Z,7.75
2023-03-26T05:06:14.528Z,3.97
2023-03-26T05:08:41.722Z,5.57
2023-03-26T05:11:12.238Z,4.90
2023-03-26T05:13:39.526Z,6.07
2023-03-26T05:16:11.467Z,6.60
2023-03-26T05:18:41.365Z,9.65
2023-03-26T05:21:08.946Z,7.40
2023-03-26T05:23:37.204Z,3.55
2023-03-26T05:26:16.306Z,4.85
2023-03-26T05:28:43.228Z,3.30
2023-03-26T05:31:21.167Z,8.00
2023-03-26T05:33:50.278Z,6.78
2023-03-26T05:36:17.222Z,3.97
2023-03-26T05:38:49.892Z,5.60
2023-03-26T05:41:42.901Z,6.18
2023-03-26T05:44:09.679Z,4.53
2023-03-26T05:46:36.804Z,5.50
2023-03-26T05:49:03.813Z,5.30
2023-03-26T05:51:33.881Z,13.48
2023-03-26T05:54:18.606Z,6.60
2023-03-26T05:57:08.188Z,9.70
2023-03-26T05:59:57.938Z,6.35
2023-03-26T06:02:43.391Z,6.72
2023-03-26T06:05:26.864Z,5.03
2023-03-26T06:08:16.451Z,5.70
2023-03-26T06:10:50.764Z,6.72
2023-03-26T06:13:17.793Z,8.95
2023-03-26T06:15:46.176Z,8.80
2023-03-26T06:18:42.941Z,3.00
2023-03-26T06:21:33.970Z,9.50
2023-03-26T06:24:16.410Z,6.38
2023-03-26T06:26:51.149Z,6.28
2023-03-26T06:29:43.788Z,6.82
2023-03-26T06:32:20.507Z,11.45
2023-03-26T06:34:59.164Z,9.45
2023-03-26T06:37:25.854Z,4.53
2023-03-26T06:39:57.670Z,3.70
2023-03-26T06:43:07.707Z,4.40
2023-03-26T06:45:54.385Z,4.43
2023-03-26T06:48:39.800Z,2.60
2023-03-26T06:51:19.421Z,5.20
2023-03-26T06:54:04.872Z,3.10
2023-03-26T06:56:53.068Z,2.08
2023-03-26T06:59:25.855Z,2.55
2023-03-26T07:02:11.677Z,3.53
2023-03-26T07:05:16.989Z,5.63
2023-03-26T07:08:03.062Z,3.42
2023-03-26T07:10:48.460Z,7.00
2023-03-26T07:13:39.910Z,6.05
2023-03-26T07:16:41.929Z,7.07
2023-03-26T07:19:33.235Z,4.28
2023-03-26T07:22:01.663Z,2.92
2023-03-26T07:24:48.100Z,4.72
2023-03-26T07:28:21.999Z,8.52
2023-03-26T07:31:42.612Z,5.15
2023-03-26T07:34:45.308Z,9.65
2023-03-26T07:37:35.814Z,6.32
2023-03-26T07:40:45.789Z,4.85
2023-03-26T07:43:41.358Z,4.13
2023-03-26T07:46:12.437Z,5.93
2023-03-26T07:49:12.644Z,6.53
2023-03-26T07:51:52.522Z,2.70
2023-03-26T07:54:52.242Z,4.45
2023-03-26T07:57:58.838Z,2.60
2023-03-26T08:00:58.717Z,4.83
2023-03-26T08:03:42.240Z,4.15
2023-03-26T08:06:39.581Z,6.60
2023-03-26T08:09:41.892Z,4.45
2023-03-26T08:12:57.451Z,5.88
2023-03-26T08:15:41.896Z,4.82
2023-03-26T08:18:20.509Z,2.03
2023-03-26T08:20:54.341Z,11.95
2023-03-26T08:23:50.463Z,4.28
2023-03-26T08:26:36.867Z,6.18
2023-03-26T08:29:16.132Z,3.22
2023-03-26T08:31:44.885Z,2.58
2023-03-26T08:34:13.416Z,3.58
2023-03-26T08:36:40.402Z,3.55
2023-03-26T08:39:08.109Z,2.55
2023-03-26T08:42:02.941Z,5.93
2023-03-26T08:45:12.006Z,2.90
2023-03-26T08:47:48.068Z,3.53
2023-03-26T08:50:33.790Z,6.90
2023-03-26T08:53:31.336Z,12.85
2023-03-26T08:56:34.920Z,10.60
2023-03-26T08:59:43.067Z,8.05
2023-03-26T09:02:38.472Z,11.57
2023-03-26T09:05:44.768Z,4.90
2023-03-26T09:08:17.106Z,2.67
2023-03-26T09:11:09.234Z,4.60
2023-03-26T09:14:08.626Z,5.50
2023-03-26T09:17:04.382Z,2.78
2023-03-26T09:19:55.835Z,3.03
2023-03-26T09:22:44.017Z,5.40
2023-03-26T09:25:18.384Z,2.40
2023-03-26T09:28:14.122Z,3.90
2023-03-26T09:31:05.549Z,2.25
2023-03-26T09:33:56.333Z,2.43
2023-03-26T09:36:40.986Z,7.28
2023-03-26T09:39:26.638Z,3.83
2023-03-26T09:42:09.034Z,2.35
2023-03-26T09:45:13.422Z,6.40
2023-03-26T09:48:16.456Z,3.42
2023-03-26T09:50:52.471Z,4.57
2023-03-26T09:53:56.355Z,11.15
2023-03-26T09:56:32.332Z,7.78
2023-03-26T09:59:37.729Z,5.25
2023-03-26T10:02:20.648Z,2.63
2023-03-26T10:05:21.560Z,4.97
2023-03-26T10:08:16.568Z,5.30
2023-03-26T10:10:47.347Z,3.58
2023-03-26T10:13:24.872Z,6.45
2023-03-26T10:16:05.247Z,5.95
2023-03-26T10:18:49.647Z,4.15
2023-03-26T10:21:34.585Z,4.55
2023-03-26T10:24:13.579Z,6.47
2023-03-26T10:27:10.833Z,4.07
2023-03-26T10:30:16.282Z,4.97
2023-03-26T10:32:51.292Z,1.98
2023-03-26T10:35:41.311Z,4.63
2023-03-26T10:38:45.715Z,6.10
2023-03-26T10:41:29.087Z,3.03
2023-03-26T10:44:22.992Z,6.72
2023-03-26T10:47:04.772Z,5.53
2023-03-26T10:49:50.031Z,2.85
2023-03-26T10:52:25.048Z,7.40
2023-03-26T10:55:03.631Z,4.43
2023-03-26T10:57:53.875Z,6.60
2023-03-26T11:00:27.231Z,13.32
2023-03-26T11:03:10.123Z,10.20
2023-03-26T11:06:10.985Z,3.97
2023-03-26T11:08:52.589Z,2.58
2023-03-26T11:11:38.503Z,2.28
2023-03-26T11:14:33.825Z,3.72
2023-03-26T11:17:40.153Z,5.60
2023-03-26T11:20:19.767Z,1.98
2023-03-26T11:23:00.942Z,8.00
2023-03-26T11:25:27.620Z,4.72
2023-03-26T11:28:00.200Z,5.07
2023-03-26T11:30:45.954Z,4.15
2023-03-26T11:33:32.701Z,4.13
2023-03-26T11:36:07.296Z,2.80
2023-03-26T11:38:41.928Z,4.28
2023-03-26T11:41:23.614Z,5.10
2023-03-26T11:44:25.994Z,6.65
2023-03-26T11:47:01.612Z,3.80
2023-03-26T11:49:29.479Z,8.75
2023-03-26T11:51:56.524Z,8.52
2023-03-26T11:54:23.234Z,5.47
2023-03-26T11:57:04.710Z,7.80
2023-03-26T12:00:10.778Z,3.00
2023-03-26T12:02:41.580Z,5.68
2023-03-26T12:05:19.932Z,6.22
2023-03-26T12:07:52.316Z,7.20
2023-03-26T12:10:26.786Z,4.82
2023-03-26T12:12:56.678Z,6.40
2023-03-26T12:17:47.258Z,4.35
2023-03-26T12:20:24.854Z,2.78
2023-03-26T12:22:59.574Z,4.13
2023-03-26T12:25:38.850Z,6.45
2023-03-26T12:28:18.546Z,3.47
2023-03-26T12:31:00.952Z,4.85
2023-03-26T12:33:34.205Z,9.30
2023-03-26T12:36:26.451Z,6.70
2023-03-26T12:40:06.028Z,4.73
2023-03-26T12:43:51.506Z,9.15
2023-03-26T12:44:54.605Z,5.72
2023-03-26T12:48:00.848Z,3.85
2023-03-26T12:50:34.448Z,8.52
2023-03-26T12:53:17.917Z,5.65
2023-03-26T12:56:23.959Z,4.55
2023-03-26T12:59:00.289Z,4.43
2023-03-26T13:01:40.835Z,5.10
2023-03-26T13:04:17.216Z,7.32
2023-03-26T13:06:59.745Z,1.92
2023-03-26T13:09:32.816Z,2.72
2023-03-26T13:12:43.170Z,2.25
2023-03-26T13:15:22.032Z,8.23
2023-03-26T13:17:51.726Z,2.80
2023-03-26T13:20:21.521Z,4.90
2023-03-26T13:23:01.868Z,7.03
2023-03-26T13:25:34.811Z,11.55
2023-03-26T13:28:19.816Z,3.80
2023-03-26T13:31:05.390Z,3.28
2023-03-26T13:33:46.350Z,4.45
2023-03-26T13:36:31.158Z,2.30
2023-03-26T13:39:08.154Z,4.70
2023-03-26T13:41:41.146Z,3.28
2023-03-26T13:44:19.970Z,4.43
2023-03-26T13:46:55.169Z,2.45
2023-03-26T13:49:43.259Z,3.35
2023-03-26T13:52:22.950Z,2.85
2023-03-26T13:55:12.340Z,2.42
2023-03-26T13:57:43.374Z,2.75
2023-03-26T14:00:18.348Z,1.75
2023-03-26T14:03:04.022Z,2.08
2023-03-26T14:05:42.262Z,6.93
2023-03-26T14:08:25.344Z,4.50
2023-03-26T14:11:01.564Z,4.57
2023-03-26T14:14:06.155Z,4.22
2023-03-26T14:16:42.321Z,2.47
2023-03-26T14:19:30.888Z,2.50
2023-03-26T14:22:18.560Z,2.35
2023-03-26T14:25:00.064Z,2.85
2023-03-26T14:27:44.978Z,2.70
2023-03-26T14:30:24.405Z,2.70
2023-03-26T14:33:27.171Z,2.60
2023-03-26T14:35:57.553Z,1.95
2023-03-26T14:38:40.233Z,3.38
2023-03-26T14:41:26.987Z,4.35
2023-03-26T14:44:12.803Z,3.90
2023-03-26T14:47:00.976Z,4.65
2023-03-26T14:49:53.615Z,4.63
2023-03-26T14:52:39.413Z,4.82
2023-03-26T14:55:17.069Z,3.75
2023-03-26T14:57:52.726Z,3.40
2023-03-26T15:01:04.145Z,3.38
2023-03-26T15:03:56.448Z,8.67
2023-03-26T15:06:41.901Z,6.25
2023-03-26T15:09:30.885Z,5.55
2023-03-26T15:12:15.058Z,10.00
2023-03-26T15:14:51.077Z,8.07
2023-03-26T15:17:59.530Z,19.20
2023-03-26T15:20:47.854Z,12.60
2023-03-26T15:23:29.412Z,23.88
2023-03-26T15:25:58.785Z,58.92
2023-03-26T15:28:50.353Z,8.73
2023-03-26T15:31:18.526Z,13.95
2023-03-26T15:33:51.167Z,12.55
2023-03-26T15:36:28.139Z,28.92
2023-03-26T15:39:06.505Z,19.73
2023-03-26T15:41:50.951Z,10.80
2023-03-26T15:44:31.680Z,5.80
2023-03-26T15:47:13.055Z,4.50
2023-03-26T15:49:49.862Z,5.20
2023-03-26T15:52:30.118Z,8.18
2023-03-26T15:55:01.761Z,4.63
2023-03-26T15:57:39.095Z,4.07
2023-03-26T16:00:25.879Z,3.78
2023-03-26T16:03:20.386Z,7.35
2023-03-26T16:06:09.699Z,3.67
2023-03-26T16:08:53.102Z,8.55
2023-03-26T16:11:44.971Z,7.15
2023-03-26T16:14:23.786Z,5.95
2023-03-26T16:16:59.248Z,8.55
2023-03-26T16:19:36.619Z,8.80
2023-03-26T16:22:07.754Z,12.00
2023-03-26T16:24:37.789Z,3.77
2023-03-26T16:27:26.212Z,4.30
2023-03-26T16:30:15.755Z,3.95
2023-03-26T16:32:55.289Z,3.63
2023-03-26T16:35:35.875Z,2.53
2023-03-26T16:38:14.766Z,5.35
2023-03-26T16:41:01.858Z,4.25
2023-03-26T16:43:43.897Z,3.47
2023-03-26T16:46:11.144Z,3.22
2023-03-26T16:48:47.123Z,7.07
2023-03-26T16:51:32.485Z,5.63
2023-03-26T16:54:26.999Z,24.23
2023-03-26T16:57:28.752Z,19.55
2023-03-26T17:00:05.932Z,21.17
2023-03-26T17:02:57.636Z,11.27
2023-03-26T17:05:38.022Z,13.90
2023-03-26T17:08:17.443Z,11.80
2023-03-26T17:11:08.447Z,12.30
2023-03-26T17:13:41.215Z,11.73
2023-03-26T17:16:13.704Z,11.63
2023-03-26T17:18:58.171Z,12.63
2023-03-26T17:21:45.534Z,5.22
2023-03-26T17:24:26.170Z,6.28
2023-03-26T17:27:29.910Z,6.45
2023-03-26T17:30:03.811Z,5.07
2023-03-26T17:32:58.613Z,6.47
2023-03-26T17:35:41.766Z,7.03
2023-03-26T17:38:17.801Z,17.27
2023-03-26T17:40:47.634Z,27.70
2023-03-26T17:43:47.742Z,12.25
2023-03-26T17:46:34.600Z,13.98
2023-03-26T17:49:11.359Z,16.45
2023-03-26T17:52:17.074Z,15.90
2023-03-26T17:54:48.033Z,15.85
2023-03-26T17:57:40.211Z,18.55
2023-03-26T18:00:16.764Z,20.88
2023-03-26T18:02:51.265Z,25.20
2023-03-26T18:05:20.719Z,22.75
2023-03-26T18:08:24.587Z,9.15
2023-03-26T18:11:26.216Z,15.15
2023-03-26T18:13:58.800Z,13.23
2023-03-26T18:16:47.524Z,13.80
2023-03-26T18:19:19.509Z,10.20
2023-03-26T18:21:58.034Z,12.30
2023-03-26T18:24:40.527Z,18.90
2023-03-26T18:27:12.623Z,19.75
2023-03-26T18:32:34.055Z,25.25
2023-03-26T18:35:17.060Z,19.35
2023-03-26T18:37:53.771Z,11.95
2023-03-26T18:40:23.548Z,9.70
2023-03-26T18:42:59.181Z,9.35
2023-03-26T18:45:39.837Z,11.15
2023-03-26T18:48:26.135Z,13.77
2023-03-26T18:51:06.022Z,11.43
2023-03-26T18:53:45.824Z,11.07
2023-03-26T18:56:29.193Z,32.22
2023-03-26T18:59:02.555Z,53.50
2023-03-26T19:01:33.236Z,64.60
2023-03-26T19:04:06.170Z,38.75
2023-03-26T19:06:38.375Z,18.67
2023-03-26T19:09:16.384Z,10.35
2023-03-26T19:12:00.665Z,10.38
2023-03-26T19:14:28.660Z,13.18
2023-03-26T19:17:01.427Z,13.93
2023-03-26T19:19:39.508Z,11.00
2023-03-26T19:22:08.092Z,15.35
2023-03-26T19:24:36.311Z,19.35
2023-03-26T19:27:04.751Z,17.00
2023-03-26T19:29:35.008Z,17.50
2023-03-26T19:32:20.276Z,14.68
2023-03-26T19:34:51.860Z,22.67
2023-03-26T19:37:22.802Z,17.73
2023-03-26T19:40:17.175Z,16.92
2023-03-26T19:42:50.817Z,26.58
2023-03-26T19:45:35.737Z,20.02
2023-03-26T19:48:15.026Z,23.67
2023-03-26T19:51:01.329Z,21.67
2023-03-26T19:53:34.591Z,17.48
2023-03-26T19:56:20.904Z,18.90
2023-03-26T19:58:50.001Z,18.50
2023-03-26T20:01:22.818Z,23.23
2023-03-26T20:03:59.411Z,13.02
2023-03-26T20:06:42.605Z,13.57
2023-03-26T20:09:12.990Z,14.77
2023-03-26T20:11:46.478Z,12.60
2023-03-26T20:14:19.366Z,16.13
2023-03-26T20:16:51.427Z,12.65
2023-03-26T20:19:27.021Z,12.57
2023-03-26T20:21:54.617Z,13.02
2023-03-26T20:24:21.632Z,14.32
2023-03-26T20:26:48.590Z,9.52
2023-03-26T20:29:16.124Z,7.90
2023-03-26T20:31:43.529Z,10.05
2023-03-26T20:34:17.018Z,7.70
2023-03-26T20:36:48.218Z,10.50
2023-03-26T20:39:15.582Z,9.20
2023-03-26T20:41:47.627Z,9.57
2023-03-26T20:44:17.378Z,7.50
2023-03-26T20:46:55.970Z,10.05
2023-03-26T20:49:24.809Z,13.85
2023-03-26T20:51:51.441Z,11.57
2023-03-26T20:54:24.337Z,9.23
2023-03-26T20:56:52.382Z,11.38
2023-03-26T20:59:22.168Z,11.80
2023-03-26T21:01:50.171Z,8.48
2023-03-26T21:04:17.750Z,7.22
2023-03-26T21:06:44.327Z,9.18
2023-03-26T21:09:23.437Z,14.15
2023-03-26T21:11:55.300Z,9.93
2023-03-26T21:14:27.666Z,10.32
2023-03-26T21:16:54.866Z,8.05
2023-03-26T21:19:21.821Z,11.55
2023-03-26T21:21:59.888Z,10.35
2023-03-26T21:24:40.909Z,9.10
2023-03-26T21:27:19.708Z,21.75
2023-03-26T21:29:46.712Z,9.88
2023-03-26T21:32:14.724Z,14.40
2023-03-26T21:34:55.540Z,8.65
2023-03-26T21:37:25.648Z,11.20
2023-03-26T21:39:52.565Z,13.77
2023-03-26T21:42:19.676Z,11.25
2023-03-26T21:44:46.764Z,9.98
2023-03-26T21:47:14.074Z,16.60
2023-03-26T21:49:41.196Z,14.15
2023-03-26T21:52:14.188Z,10.32
2023-03-26T21:54:43.182Z,13.93
2023-03-26T21:57:29.065Z,17.52
2023-03-26T22:00:11.521Z,23.58
2023-03-26T22:03:00.768Z,15.07
2023-03-26T22:05:45.448Z,14.63
2023-03-26T22:08:24.260Z,8.27
2023-03-26T22:10:51.224Z,41.58
2023-03-26T22:13:19.925Z,38.75
2023-03-26T22:15:46.743Z,41.70
2023-03-26T22:18:14.248Z,55.83
2023-03-26T22:20:43.223Z,63.72
2023-03-26T22:23:10.773Z,16.90
2023-03-26T22:25:38.628Z,17.13
2023-03-26T22:28:05.649Z,14.95
2023-03-26T22:30:33.413Z,14.93
2023-03-26T22:33:00.075Z,21.52
2023-03-26T22:35:26.706Z,36.17
2023-03-26T22:38:00.491Z,37.20
2023-03-26T22:40:28.276Z,22.77
2023-03-26T22:42:55.141Z,27.00
2023-03-26T22:45:22.848Z,43.42
2023-03-26T22:47:49.965Z,28.48
2023-03-26T22:50:16.671Z,40.75
2023-03-26T22:52:43.189Z,37.15
2023-03-26T22:55:11.528Z,31.17
2023-03-26T22:57:39.551Z,31.35
2023-03-26T23:00:16.145Z,21.27
2023-03-26T23:02:47.188Z,33.05
2023-03-26T23:05:17.371Z,34.00
2023-03-26T23:07:45.905Z,37.25
2023-03-26T23:10:13.027Z,38.50
2023-03-26T23:12:43.349Z,47.15
2023-03-26T23:15:10.637Z,35.30
2023-03-26T23:17:37.809Z,38.13
2023-03-26T23:20:14.996Z,44.58
2023-03-26T23:22:42.831Z,38.47
2023-03-26T23:25:11.145Z,33.20
2023-03-26T23:27:39.596Z,31.17
2023-03-26T23:30:06.719Z,29.13
2023-03-26T23:32:37.637Z,33.45
2023-03-26T23:35:04.954Z,27.85
2023-03-26T23:37:34.791Z,25.45
2023-03-26T23:40:01.470Z,26.40
2023-03-26T23:42:29.761Z,19.02
2023-03-26T23:44:57.505Z,25.55
2023-03-26T23:47:24.452Z,35.90
2023-03-26T23:49:51.195Z,37.33
2023-03-26T23:52:18.301Z,44.28
2023-03-26T23:54:45.638Z,40.20
2023-03-26T23:57:12.798Z,27.00
2023-03-26T23:59:41.418Z,25.60
